createdAt,value
2022-10-09T00:01:11.353Z,3.10
2022-10-09T00:03:39.933Z,3.40
2022-10-09T00:06:08.832Z,3.08
2022-10-09T00:08:39.270Z,2.75
2022-10-09T00:11:12.152Z,3.05
2022-10-09T00:13:38.867Z,4.00
2022-10-09T00:16:08.549Z,3.85
2022-10-09T00:18:36.175Z,3.22
2022-10-09T00:21:03.893Z,3.25
2022-10-09T00:23:31.567Z,3.42
2022-10-09T00:26:01.944Z,2.97
2022-10-09T00:28:34.255Z,3.00
2022-10-09T00:31:07.856Z,3.20
2022-10-09T00:33:35.391Z,3.28
2022-10-09T00:36:07.806Z,3.20
2022-10-09T00:38:35.167Z,2.88
2022-10-09T00:41:02.091Z,3.40
2022-10-09T00:43:51.031Z,3.45
2022-10-09T00:46:24.197Z,3.47
2022-10-09T00:49:03.182Z,3.00
2022-10-09T00:51:31.831Z,3.08
2022-10-09T00:54:01.943Z,3.33
2022-10-09T00:56:28.695Z,3.83
2022-10-09T00:58:57.533Z,2.88
2022-10-09T01:01:24.302Z,3.20
2022-10-09T01:03:51.006Z,2.90
2022-10-09T01:06:40.455Z,2.75
2022-10-09T01:09:46.576Z,3.20
2022-10-09T01:12:32.252Z,3.08
2022-10-09T01:15:11.919Z,2.80
2022-10-09T01:17:44.013Z,2.70
2022-10-09T01:20:33.745Z,2.63
2022-10-09T01:23:27.741Z,2.55
2022-10-09T01:26:33.631Z,3.20
2022-10-09T01:29:07.819Z,3.00
2022-10-09T01:31:45.241Z,3.43
2022-10-09T01:34:15.768Z,3.33
2022-10-09T01:36:44.808Z,3.42
2022-10-09T01:39:17.665Z,3.00
2022-10-09T01:41:49.747Z,4.15
2022-10-09T01:44:31.596Z,3.50
2022-10-09T01:46:59.296Z,3.65
2022-10-09T01:49:49.405Z,4.00
2022-10-09T01:52:28.661Z,3.55
2022-10-09T01:55:10.681Z,4.20
2022-10-09T01:57:58.632Z,3.45
2022-10-09T02:00:26.550Z,3.88
2022-10-09T02:02:55.113Z,4.00
2022-10-09T02:05:26.368Z,3.30
2022-10-09T02:07:54.556Z,3.53
2022-10-09T02:10:23.330Z,4.25
2022-10-09T02:13:00.798Z,3.72
2022-10-09T02:15:49.753Z,4.15
2022-10-09T02:18:27.143Z,3.60
2022-10-09T02:20:59.436Z,3.90
2022-10-09T02:23:27.805Z,3.63
2022-10-09T02:25:55.236Z,3.65
2022-10-09T02:28:22.555Z,4.90
2022-10-09T02:30:56.492Z,4.55
2022-10-09T02:33:34.238Z,2.73
2022-10-09T02:36:01.499Z,4.32
2022-10-09T02:38:29.263Z,4.63
2022-10-09T02:41:00.255Z,3.55
2022-10-09T02:43:27.181Z,4.22
2022-10-09T02:45:53.867Z,4.38
2022-10-09T02:48:21.249Z,4.03
2022-10-09T02:50:48.075Z,3.63
2022-10-09T02:53:14.688Z,4.10
2022-10-09T02:55:41.596Z,4.35
2022-10-09T02:58:08.319Z,4.43
2022-10-09T03:00:35.004Z,4.47
2022-10-09T03:03:01.639Z,4.20
2022-10-09T03:05:28.221Z,4.38
2022-10-09T03:07:54.783Z,4.63
2022-10-09T03:10:21.710Z,4.00
2022-10-09T03:12:48.939Z,4.30
2022-10-09T03:15:16.400Z,4.55
2022-10-09T03:17:43.344Z,4.15
2022-10-09T03:20:10.152Z,4.03
2022-10-09T03:22:36.779Z,4.22
2022-10-09T03:25:03.554Z,4.65
2022-10-09T03:27:31.017Z,5.07
2022-10-09T03:29:58.813Z,4.95
2022-10-09T03:32:26.093Z,3.75
2022-10-09T03:34:53.028Z,4.13
2022-10-09T03:37:19.745Z,4.43
2022-10-09T03:39:46.407Z,5.40
2022-10-09T03:42:13.488Z,4.13
2022-10-09T03:44:40.288Z,4.10
2022-10-09T03:47:07.108Z,4.30
2022-10-09T03:49:33.963Z,4.28
2022-10-09T03:52:00.568Z,4.53
2022-10-09T03:54:27.411Z,4.47
2022-10-09T03:56:54.341Z,4.43
2022-10-09T03:59:21.115Z,4.57
2022-10-09T04:01:47.890Z,5.28
2022-10-09T04:04:14.536Z,4.50
2022-10-09T04:06:41.456Z,4.95
2022-10-09T04:09:08.875Z,4.88
2022-10-09T04:11:36.287Z,3.85
2022-10-09T04:14:03.429Z,4.93
2022-10-09T04:16:30.058Z,5.03
2022-10-09T04:18:56.706Z,5.32
2022-10-09T04:21:23.311Z,5.25
2022-10-09T04:23:51.047Z,5.07
2022-10-09T04:26:17.650Z,4.05
2022-10-09T04:28:44.851Z,4.80
2022-10-09T04:31:11.797Z,4.38
2022-10-09T04:33:38.551Z,4.35
2022-10-09T04:36:05.499Z,4.40
2022-10-09T04:38:32.232Z,5.22
2022-10-09T04:41:00.371Z,5.18
2022-10-09T04:43:27.419Z,5.38
2022-10-09T04:45:54.329Z,5.20
2022-10-09T04:48:21.363Z,4.78
2022-10-09T04:50:48.371Z,5.30
2022-10-09T04:53:15.380Z,5.82
2022-10-09T04:55:43.655Z,5.50
2022-10-09T04:58:11.488Z,5.03
2022-10-09T05:00:43.755Z,5.38
2022-10-09T05:03:10.995Z,4.45
2022-10-09T05:05:38.026Z,5.57
2022-10-09T05:08:04.871Z,4.72
2022-10-09T05:10:32.429Z,4.63
2022-10-09T05:13:00.140Z,4.93
2022-10-09T05:15:27.148Z,4.40
2022-10-09T05:17:53.822Z,5.40
2022-10-09T05:20:20.541Z,4.88
2022-10-09T05:22:48.574Z,5.55
2022-10-09T05:25:15.628Z,5.20
2022-10-09T05:27:42.310Z,5.30
2022-10-09T05:30:09.836Z,5.28
2022-10-09T05:32:36.781Z,5.55
2022-10-09T05:35:04.526Z,5.28
2022-10-09T05:37:31.181Z,4.97
2022-10-09T05:39:58.158Z,5.22
2022-10-09T05:42:24.793Z,4.95
2022-10-09T05:44:51.450Z,5.50
2022-10-09T05:47:19.670Z,5.40
2022-10-09T05:49:47.579Z,6.05
2022-10-09T05:52:14.167Z,5.38
2022-10-09T05:54:41.928Z,5.72
2022-10-09T05:57:09.538Z,6.15
2022-10-09T05:59:36.178Z,5.72
2022-10-09T06:02:03.107Z,5.80
2022-10-09T06:04:30.094Z,6.80
2022-10-09T06:06:59.072Z,6.60
2022-10-09T06:09:26.219Z,7.47
2022-10-09T06:11:54.307Z,7.32
2022-10-09T06:14:22.087Z,8.50
2022-10-09T06:16:49.541Z,8.65
2022-10-09T06:19:17.605Z,8.25
2022-10-09T06:21:45.033Z,8.48
2022-10-09T06:24:18.512Z,7.78
2022-10-09T06:26:45.212Z,8.45
2022-10-09T06:29:12.456Z,8.95
2022-10-09T06:31:39.182Z,8.75
2022-10-09T06:34:06.021Z,8.68
2022-10-09T06:36:35.226Z,9.65
2022-10-09T06:39:04.655Z,8.60
2022-10-09T06:41:31.475Z,9.13
2022-10-09T06:44:00.620Z,9.55
2022-10-09T06:46:30.453Z,9.15
2022-10-09T06:48:59.290Z,9.35
2022-10-09T06:51:27.845Z,9.40
2022-10-09T06:53:56.217Z,10.10
2022-10-09T06:56:24.924Z,9.77
2022-10-09T06:58:52.260Z,10.60
2022-10-09T07:01:32.761Z,10.68
2022-10-09T07:04:09.121Z,10.05
2022-10-09T07:06:39.885Z,9.18
2022-10-09T07:09:10.055Z,10.10
2022-10-09T07:11:40.191Z,9.95
2022-10-09T07:14:08.666Z,9.52
2022-10-09T07:16:38.678Z,10.27
2022-10-09T07:19:08.346Z,9.55
2022-10-09T07:21:35.785Z,10.18
2022-10-09T07:24:03.649Z,9.45
2022-10-09T07:26:34.123Z,9.88
2022-10-09T07:29:01.734Z,9.55
2022-10-09T07:31:28.928Z,10.18
2022-10-09T07:33:58.879Z,8.88
2022-10-09T07:36:25.915Z,9.50
2022-10-09T07:38:54.602Z,8.38
2022-10-09T07:41:23.088Z,8.50
2022-10-09T07:43:49.929Z,10.18
2022-10-09T07:46:19.166Z,8.07
2022-10-09T07:48:46.884Z,7.32
2022-10-09T07:51:17.950Z,8.57
2022-10-09T07:53:45.204Z,8.57
2022-10-09T07:56:22.788Z,8.07
2022-10-09T07:58:54.144Z,9.90
2022-10-09T08:01:22.159Z,11.10
2022-10-09T08:03:49.541Z,10.38
2022-10-09T08:06:17.699Z,11.48
2022-10-09T08:08:45.170Z,11.25
2022-10-09T08:11:17.435Z,11.30
2022-10-09T08:13:45.719Z,11.60
2022-10-09T08:16:13.141Z,12.32
2022-10-09T08:18:40.142Z,11.82
2022-10-09T08:21:09.482Z,11.75
2022-10-09T08:23:36.796Z,13.30
2022-10-09T08:26:04.965Z,12.90
2022-10-09T08:28:31.735Z,13.40
2022-10-09T08:30:58.742Z,13.13
2022-10-09T08:33:25.988Z,13.02
2022-10-09T08:35:53.213Z,12.75
2022-10-09T08:38:45.482Z,14.70
2022-10-09T08:41:29.112Z,12.65
2022-10-09T08:44:03.185Z,11.88
2022-10-09T08:46:49.020Z,15.23
2022-10-09T08:49:26.189Z,13.63
2022-10-09T08:51:54.488Z,12.38
2022-10-09T08:54:36.795Z,13.32
2022-10-09T08:57:10.069Z,14.02
2022-10-09T08:59:36.966Z,11.63
2022-10-09T09:02:44.861Z,11.93
2022-10-09T09:05:38.759Z,11.38
2022-10-09T09:08:16.847Z,10.45
2022-10-09T09:11:16.067Z,9.23
2022-10-09T09:13:56.769Z,8.30
2022-10-09T09:17:00.097Z,7.57
2022-10-09T09:19:45.774Z,7.90
2022-10-09T09:22:14.480Z,6.32
2022-10-09T09:24:47.902Z,6.35
2022-10-09T09:27:19.359Z,5.72
2022-10-09T09:29:55.996Z,5.57
2022-10-09T09:32:25.618Z,6.15
2022-10-09T09:34:56.863Z,5.22
2022-10-09T09:37:23.663Z,5.28
2022-10-09T09:42:36.964Z,4.68
2022-10-09T09:45:07.765Z,5.13
2022-10-09T09:47:38.727Z,3.80
2022-10-09T09:50:06.340Z,4.10
2022-10-09T09:52:38.860Z,4.18
2022-10-09T09:55:05.944Z,4.15
2022-10-09T09:57:38.357Z,4.18
2022-10-09T10:00:24.473Z,4.63
2022-10-09T10:03:02.496Z,4.28
2022-10-09T10:05:35.920Z,4.72
2022-10-09T10:08:23.674Z,5.20
2022-10-09T10:10:53.963Z,4.25
2022-10-09T10:13:28.084Z,4.60
2022-10-09T10:15:56.944Z,4.05
2022-10-09T10:18:26.844Z,4.10
2022-10-09T10:21:07.628Z,4.82
2022-10-09T10:23:36.408Z,4.22
2022-10-09T10:26:22.769Z,4.03
2022-10-09T10:28:59.121Z,2.35
2022-10-09T10:31:43.340Z,4.57
2022-10-09T10:34:38.116Z,4.63
2022-10-09T10:37:25.869Z,4.30
2022-10-09T10:39:57.499Z,3.90
2022-10-09T10:42:55.006Z,3.47
2022-10-09T10:45:29.987Z,3.83
2022-10-09T10:47:59.420Z,4.13
2022-10-09T10:50:36.143Z,3.95
2022-10-09T10:53:26.077Z,3.33
2022-10-09T10:56:04.948Z,4.25
2022-10-09T10:58:52.716Z,4.07
2022-10-09T11:01:47.731Z,3.67
2022-10-09T11:04:36.295Z,4.38
2022-10-09T11:07:09.881Z,4.07
2022-10-09T11:09:44.944Z,3.95
2022-10-09T11:12:36.396Z,3.75
2022-10-09T11:15:30.770Z,3.53
2022-10-09T11:18:12.522Z,3.92
2022-10-09T11:20:51.141Z,4.10
2022-10-09T11:23:26.808Z,3.55
2022-10-09T11:26:40.195Z,2.65
2022-10-09T11:29:32.393Z,3.38
2022-10-09T11:32:10.367Z,3.22
2022-10-09T11:34:58.065Z,3.78
2022-10-09T11:37:29.889Z,3.65
2022-10-09T11:39:56.673Z,3.15
2022-10-09T11:42:25.964Z,3.85
2022-10-09T11:45:02.762Z,4.00
2022-10-09T11:47:45.043Z,3.17
2022-10-09T11:50:37.081Z,3.03
2022-10-09T11:53:17.403Z,3.00
2022-10-09T11:55:44.263Z,3.50
2022-10-09T11:58:19.740Z,2.40
2022-10-09T12:00:50.643Z,2.70
2022-10-09T12:03:35.119Z,3.25
2022-10-09T12:06:10.842Z,3.72
2022-10-09T12:08:41.317Z,3.22
2022-10-09T12:11:19.490Z,3.42
2022-10-09T12:13:48.289Z,3.55
2022-10-09T12:16:36.874Z,2.22
2022-10-09T12:19:13.612Z,2.97
2022-10-09T12:21:59.884Z,2.90
2022-10-09T12:24:32.872Z,2.95
2022-10-09T12:27:03.163Z,2.60
2022-10-09T12:29:43.204Z,1.98
2022-10-09T12:32:18.517Z,2.45
2022-10-09T12:34:50.084Z,2.53
2022-10-09T12:37:23.080Z,2.30
2022-10-09T12:39:50.505Z,1.70
2022-10-09T12:42:24.070Z,1.67
2022-10-09T12:44:54.344Z,1.85
2022-10-09T12:47:27.770Z,1.95
2022-10-09T12:50:16.044Z,2.25
2022-10-09T12:52:58.282Z,2.50
2022-10-09T12:55:30.295Z,1.85
2022-10-09T12:58:06.923Z,1.73
2022-10-09T13:00:34.513Z,1.80
2022-10-09T13:03:01.648Z,1.83
2022-10-09T13:05:39.293Z,2.80
2022-10-09T13:08:15.300Z,1.52
2022-10-09T13:10:42.016Z,2.20
2022-10-09T13:13:21.235Z,1.90
2022-10-09T13:15:59.253Z,1.67
2022-10-09T13:18:26.032Z,2.03
2022-10-09T13:21:01.976Z,1.58
2022-10-09T13:23:33.145Z,1.63
2022-10-09T13:26:03.809Z,2.00
2022-10-09T13:28:30.979Z,2.15
2022-10-09T13:31:07.148Z,1.90
2022-10-09T13:33:34.468Z,2.08
2022-10-09T13:36:01.279Z,2.03
2022-10-09T13:38:31.376Z,2.10
2022-10-09T13:41:00.903Z,1.60
2022-10-09T13:43:28.953Z,2.58
2022-10-09T13:45:55.848Z,1.77
2022-10-09T13:48:23.541Z,1.88
2022-10-09T13:50:50.112Z,1.70
2022-10-09T13:53:17.079Z,1.45
2022-10-09T13:55:43.977Z,2.15
2022-10-09T13:58:10.728Z,2.10
2022-10-09T14:00:37.741Z,2.10
2022-10-09T14:03:04.846Z,1.80
2022-10-09T14:05:31.463Z,2.28
2022-10-09T14:07:58.201Z,1.92
2022-10-09T14:10:24.857Z,2.58
2022-10-09T14:12:52.017Z,1.95
2022-10-09T14:15:18.989Z,1.88
2022-10-09T14:17:45.664Z,3.22
2022-10-09T14:20:12.530Z,2.20
2022-10-09T14:22:39.213Z,1.98
2022-10-09T14:25:06.646Z,2.05
2022-10-09T14:30:00.327Z,2.30
2022-10-09T14:32:27.580Z,2.10
2022-10-09T14:34:54.441Z,2.20
2022-10-09T14:37:39.755Z,2.05
2022-10-09T14:40:07.931Z,2.55
2022-10-09T14:42:36.355Z,2.40
2022-10-09T14:45:03.427Z,2.00
2022-10-09T14:47:30.509Z,2.08
2022-10-09T14:49:57.400Z,1.98
2022-10-09T14:52:24.017Z,2.05
2022-10-09T14:54:50.571Z,2.05
2022-10-09T14:57:17.203Z,2.30
2022-10-09T14:59:43.817Z,2.30
2022-10-09T15:02:15.136Z,2.30
2022-10-09T15:04:41.882Z,2.13
2022-10-09T15:07:08.686Z,2.33
2022-10-09T15:09:35.659Z,2.17
2022-10-09T15:12:02.364Z,2.58
2022-10-09T15:14:29.106Z,2.13
2022-10-09T15:16:55.984Z,2.38
2022-10-09T15:19:23.027Z,2.10
2022-10-09T15:21:49.626Z,2.10
2022-10-09T15:24:16.187Z,2.33
2022-10-09T15:26:42.761Z,2.10
2022-10-09T15:29:09.438Z,2.30
2022-10-09T15:31:40.391Z,2.00
2022-10-09T15:34:08.006Z,2.47
2022-10-09T15:36:39.648Z,1.80
2022-10-09T15:39:07.884Z,1.95
2022-10-09T15:41:37.460Z,3.28
2022-10-09T15:44:07.015Z,2.20
2022-10-09T15:46:34.670Z,1.90
2022-10-09T15:49:01.430Z,1.88
2022-10-09T15:51:29.905Z,1.60
2022-10-09T15:54:01.248Z,1.90
2022-10-09T15:56:28.628Z,1.77
2022-10-09T15:58:56.528Z,1.90
2022-10-09T16:01:23.939Z,2.17
2022-10-09T16:03:51.307Z,2.03
2022-10-09T16:06:20.906Z,2.15
2022-10-09T16:08:48.365Z,2.60
2022-10-09T16:11:20.227Z,2.10
2022-10-09T16:13:50.073Z,1.98
2022-10-09T16:16:21.775Z,3.03
2022-10-09T16:18:51.719Z,2.35
2022-10-09T16:21:24.259Z,2.22
2022-10-09T16:23:55.839Z,2.10
2022-10-09T16:26:25.266Z,2.13
2022-10-09T16:28:52.356Z,2.13
2022-10-09T16:31:31.049Z,1.98
2022-10-09T16:33:58.573Z,2.60
2022-10-09T16:36:25.198Z,1.95
2022-10-09T16:38:52.058Z,2.42
2022-10-09T16:41:22.960Z,2.13
2022-10-09T16:43:52.512Z,2.17
2022-10-09T16:46:24.013Z,2.30
2022-10-09T16:48:52.608Z,2.33
2022-10-09T16:52:19.327Z,1.80
2022-10-09T16:54:48.662Z,2.10
2022-10-09T16:57:15.791Z,2.13
2022-10-09T16:59:44.093Z,2.13
2022-10-09T17:02:12.755Z,2.30
2022-10-09T17:04:40.673Z,2.53
2022-10-09T17:07:09.762Z,2.13
2022-10-09T17:09:37.417Z,1.95
2022-10-09T17:12:05.189Z,2.90
2022-10-09T17:14:32.100Z,2.50
2022-10-09T17:16:59.012Z,2.00
2022-10-09T17:19:25.787Z,2.70
2022-10-09T17:21:52.389Z,2.10
2022-10-09T17:24:19.144Z,2.28
2022-10-09T17:26:45.776Z,2.00
2022-10-09T17:29:14.101Z,2.55
2022-10-09T17:31:41.376Z,5.57
2022-10-09T17:34:08.099Z,2.80
2022-10-09T17:36:37.905Z,2.15
2022-10-09T17:39:07.350Z,2.70
2022-10-09T17:41:34.595Z,1.90
2022-10-09T17:44:04.249Z,3.03
2022-10-09T17:46:33.674Z,2.30
2022-10-09T17:49:00.425Z,2.45
2022-10-09T17:51:30.339Z,2.10
2022-10-09T17:53:59.446Z,2.00
2022-10-09T17:56:26.285Z,2.28
2022-10-09T17:58:52.965Z,2.40
2022-10-09T18:01:19.695Z,2.20
2022-10-09T18:03:46.532Z,2.58
2022-10-09T18:06:16.163Z,2.65
2022-10-09T18:08:43.880Z,2.30
2022-10-09T18:11:14.793Z,2.38
2022-10-09T18:13:42.386Z,3.03
2022-10-09T18:16:13.456Z,2.85
2022-10-09T18:18:40.333Z,3.20
2022-10-09T18:21:11.233Z,2.78
2022-10-09T18:23:38.641Z,3.00
2022-10-09T18:26:10.244Z,2.90
2022-10-09T18:28:38.018Z,2.78
2022-10-09T18:31:09.237Z,3.25
2022-10-09T18:33:36.338Z,2.80
2022-10-09T18:36:06.883Z,2.95
2022-10-09T18:38:34.947Z,3.25
2022-10-09T18:41:02.008Z,3.25
2022-10-09T18:43:28.901Z,3.25
2022-10-09T18:45:56.689Z,3.10
2022-10-09T18:48:23.483Z,3.72
2022-10-09T18:50:50.177Z,3.83
2022-10-09T18:53:16.923Z,3.67
2022-10-09T18:55:44.240Z,3.63
2022-10-09T18:58:12.916Z,3.88
2022-10-09T19:00:40.109Z,3.10
2022-10-09T19:03:06.900Z,3.75
2022-10-09T19:05:33.904Z,3.60
2022-10-09T19:08:00.952Z,3.85
2022-10-09T19:10:27.600Z,3.40
2022-10-09T19:12:55.093Z,4.18
2022-10-09T19:15:22.031Z,3.50
2022-10-09T19:17:49.887Z,3.38
2022-10-09T19:20:19.711Z,3.17
2022-10-09T19:22:46.292Z,3.17
2022-10-09T19:25:13.375Z,3.10
2022-10-09T19:27:40.086Z,3.40
2022-10-09T19:30:07.414Z,3.25
2022-10-09T19:32:34.100Z,3.70
2022-10-09T19:35:00.835Z,3.92
2022-10-09T19:37:29.810Z,3.67
2022-10-09T19:39:57.034Z,4.57
2022-10-09T19:42:24.766Z,4.13
2022-10-09T19:44:51.374Z,5.30
2022-10-09T19:47:19.101Z,4.85
2022-10-09T19:49:45.798Z,4.65
2022-10-09T19:52:12.404Z,4.18
2022-10-09T19:54:39.988Z,5.20
2022-10-09T19:57:06.668Z,4.80
2022-10-09T19:59:33.475Z,4.18
2022-10-09T20:02:00.166Z,4.43
2022-10-09T20:04:26.942Z,4.32
2022-10-09T20:06:53.612Z,4.70
2022-10-09T20:09:21.011Z,4.85
2022-10-09T20:11:48.066Z,5.45
2022-10-09T20:14:15.305Z,5.00
2022-10-09T20:16:42.084Z,5.47
2022-10-09T20:19:08.973Z,4.78
2022-10-09T20:21:35.930Z,5.13
2022-10-09T20:24:02.651Z,4.80
2022-10-09T20:26:33.331Z,5.60
2022-10-09T20:28:59.946Z,5.90
2022-10-09T20:31:27.127Z,5.53
2022-10-09T20:33:55.139Z,6.10
2022-10-09T20:36:29.938Z,5.07
2022-10-09T20:41:30.216Z,5.25
2022-10-09T20:43:59.478Z,5.15
2022-10-09T20:46:28.555Z,5.90
2022-10-09T20:48:55.574Z,5.20
2022-10-09T20:51:23.295Z,6.10
2022-10-09T20:53:59.378Z,5.28
2022-10-09T20:56:30.976Z,5.75
2022-10-09T20:58:58.944Z,5.80
2022-10-09T21:01:27.015Z,6.15
2022-10-09T21:03:56.132Z,6.20
2022-10-09T21:06:23.412Z,6.20
2022-10-09T21:08:50.716Z,6.32
2022-10-09T21:11:18.689Z,5.85
2022-10-09T21:13:46.302Z,5.50
2022-10-09T21:16:16.190Z,6.63
2022-10-09T21:18:43.026Z,6.45
2022-10-09T21:21:13.105Z,5.97
2022-10-09T21:23:40.554Z,6.05
2022-10-09T21:26:12.239Z,5.43
2022-10-09T21:28:39.167Z,5.65
2022-10-09T21:31:15.924Z,6.95
2022-10-09T21:33:42.890Z,5.70
2022-10-09T21:36:24.293Z,5.85
2022-10-09T21:38:51.197Z,5.82
2022-10-09T21:41:18.040Z,5.80
2022-10-09T21:43:44.839Z,6.13
2022-10-09T21:46:11.633Z,5.40
2022-10-09T21:48:38.583Z,5.38
2022-10-09T21:51:05.414Z,4.85
2022-10-09T21:53:32.320Z,5.50
2022-10-09T21:55:58.990Z,5.63
2022-10-09T21:58:25.700Z,5.53
2022-10-09T22:01:00.705Z,6.10
2022-10-09T22:03:30.143Z,5.35
2022-10-09T22:05:57.292Z,5.75
2022-10-09T22:08:24.715Z,5.68
2022-10-09T22:10:51.767Z,4.90
2022-10-09T22:13:21.013Z,5.00
2022-10-09T22:15:51.198Z,5.30
2022-10-09T22:18:18.761Z,4.80
2022-10-09T22:20:49.006Z,4.45
2022-10-09T22:23:17.206Z,5.13
2022-10-09T22:25:43.882Z,4.85
2022-10-09T22:28:11.035Z,5.05
2022-10-09T22:30:37.682Z,5.30
2022-10-09T22:33:04.683Z,4.57
2022-10-09T22:35:31.327Z,5.47
2022-10-09T22:37:58.220Z,5.22
2022-10-09T22:40:24.853Z,4.43
2022-10-09T22:42:51.818Z,5.55
2022-10-09T22:45:18.904Z,5.55
2022-10-09T22:47:47.851Z,5.22
2022-10-09T22:50:14.780Z,5.13
2022-10-09T22:52:41.353Z,4.80
2022-10-09T22:55:08.439Z,5.30
2022-10-09T22:57:35.037Z,5.20
2022-10-09T23:00:01.930Z,5.72
2022-10-09T23:02:28.581Z,5.15
2022-10-09T23:04:55.165Z,5.68
2022-10-09T23:07:21.734Z,5.50
2022-10-09T23:09:48.296Z,5.13
2022-10-09T23:12:15.031Z,5.70
2022-10-09T23:14:41.985Z,5.72
2022-10-09T23:17:08.771Z,5.25
2022-10-09T23:19:35.667Z,5.70
2022-10-09T23:22:02.398Z,6.05
2022-10-09T23:24:29.676Z,6.18
2022-10-09T23:26:56.249Z,6.93
2022-10-09T23:29:22.815Z,6.15
2022-10-09T23:31:52.548Z,5.63
2022-10-09T23:34:19.166Z,6.50
2022-10-09T23:36:45.735Z,5.65
2022-10-09T23:39:12.968Z,6.70
2022-10-09T23:41:40.033Z,6.80
2022-10-09T23:44:06.617Z,5.82
2022-10-09T23:46:34.116Z,6.70
2022-10-09T23:49:01.246Z,5.95
2022-10-09T23:51:28.628Z,6.38
2022-10-09T23:53:55.823Z,6.22
2022-10-09T23:56:31.361Z,5.50
2022-10-09T23:58:59.912Z,7.07
